createdAt,value
2019-05-19T00:00:04.396Z,88.15
2019-05-19T00:01:04.417Z,88.05
2019-05-19T00:02:04.452Z,88.72
2019-05-19T00:03:04.491Z,88.68
2019-05-19T00:04:04.521Z,88.91
2019-05-19T00:05:04.557Z,89.10
2019-05-19T00:06:04.589Z,89.15
2019-05-19T00:07:04.649Z,89.63
2019-05-19T00:08:04.717Z,89.63
2019-05-19T00:09:04.698Z,89.25
2019-05-19T00:10:04.769Z,89.73
2019-05-19T00:11:04.765Z,89.53
2019-05-19T00:12:04.801Z,90.30
2019-05-19T00:13:04.835Z,90.20
2019-05-19T00:14:04.868Z,90.30
2019-05-19T00:15:04.903Z,90.68
2019-05-19T00:16:04.936Z,90.59
2019-05-19T00:17:04.973Z,91.35
2019-05-19T00:18:05.012Z,90.97
2019-05-19T00:19:05.038Z,90.78
2019-05-19T00:20:05.075Z,91.35
2019-05-19T00:21:05.108Z,91.30
2019-05-19T00:22:05.141Z,91.83
2019-05-19T00:23:05.180Z,91.64
2019-05-19T00:24:05.210Z,91.93
2019-05-19T00:25:05.252Z,91.97
2019-05-19T00:26:05.280Z,91.88
2019-05-19T00:27:05.314Z,92.55
2019-05-19T00:28:05.352Z,92.59
2019-05-19T00:29:05.383Z,92.64
2019-05-19T00:30:05.417Z,93.02
2019-05-19T00:31:05.455Z,93.31
2019-05-19T00:32:05.492Z,93.98
2019-05-19T00:33:05.521Z,94.17
2019-05-19T00:34:05.556Z,94.27
2019-05-19T00:35:05.592Z,94.65
2019-05-19T00:36:05.623Z,95.41
2019-05-19T00:37:05.658Z,94.84
2019-05-19T00:38:05.699Z,94.74
2019-05-19T00:39:05.728Z,94.65
2019-05-19T00:40:05.823Z,94.55
2019-05-19T00:41:05.800Z,94.93
2019-05-19T00:42:05.828Z,95.22
2019-05-19T00:43:05.881Z,94.84
2019-05-19T00:44:05.897Z,95.36
2019-05-19T00:45:05.934Z,95.46
2019-05-19T00:46:05.968Z,95.17
2019-05-19T00:47:06.000Z,95.27
2019-05-19T00:48:06.033Z,95.36
2019-05-19T00:49:06.068Z,95.27
2019-05-19T00:50:06.103Z,95.03
2019-05-19T00:51:06.143Z,96.03
2019-05-19T00:52:06.170Z,96.03
2019-05-19T00:53:06.205Z,95.84
2019-05-19T00:54:06.237Z,96.61
2019-05-19T00:55:06.273Z,96.89
2019-05-19T00:56:06.345Z,96.42
2019-05-19T00:57:06.338Z,96.42
2019-05-19T00:58:06.374Z,96.42
2019-05-19T00:59:06.407Z,96.98
2019-05-19T01:00:06.440Z,97.27
2019-05-19T01:01:06.474Z,97.08
2019-05-19T01:02:06.510Z,97.56
2019-05-19T01:03:06.542Z,98.23
2019-05-19T01:04:06.595Z,98.61
2019-05-19T01:05:06.609Z,98.03
2019-05-19T01:06:06.642Z,98.61
2019-05-19T01:07:06.686Z,98.03
2019-05-19T01:08:06.709Z,98.71
2019-05-19T01:09:06.744Z,98.42
2019-05-19T01:10:06.778Z,98.71
2019-05-19T01:11:06.810Z,98.52
2019-05-19T01:12:06.845Z,98.52
2019-05-19T01:13:06.880Z,98.90
2019-05-19T01:14:06.917Z,97.85
2019-05-19T01:15:06.945Z,97.18
2019-05-19T01:16:06.981Z,97.66
2019-05-19T01:17:07.012Z,97.75
2019-05-19T01:18:07.045Z,97.27
2019-05-19T01:19:07.080Z,96.80
2019-05-19T01:20:07.114Z,96.22
2019-05-19T01:21:07.147Z,97.08
2019-05-19T01:22:07.183Z,97.18
2019-05-19T01:23:07.215Z,96.98
2019-05-19T01:24:07.249Z,97.37
2019-05-19T01:25:07.338Z,96.42
2019-05-19T01:26:07.323Z,96.13
2019-05-19T01:27:07.349Z,96.42
2019-05-19T01:28:07.393Z,96.03
2019-05-19T01:29:07.422Z,95.84
2019-05-19T01:30:07.448Z,95.65
2019-05-19T01:31:07.485Z,96.42
2019-05-19T01:32:07.516Z,95.46
2019-05-19T01:33:07.551Z,95.65
2019-05-19T01:34:07.586Z,95.17
2019-05-19T01:35:07.620Z,95.56
2019-05-19T01:36:07.654Z,95.56
2019-05-19T01:37:07.686Z,94.79
2019-05-19T01:38:07.718Z,95.46
2019-05-19T01:39:07.755Z,96.03
2019-05-19T01:40:07.786Z,95.94
2019-05-19T01:41:07.818Z,96.51
2019-05-19T01:42:07.852Z,97.08
2019-05-19T01:43:07.886Z,96.03
2019-05-19T01:44:07.923Z,95.94
2019-05-19T01:45:07.953Z,95.46
2019-05-19T01:46:07.986Z,95.46
2019-05-19T01:47:08.020Z,94.98
2019-05-19T01:48:08.055Z,95.65
2019-05-19T01:49:08.086Z,95.36
2019-05-19T01:50:17.433Z,95.65
2019-05-19T01:51:08.155Z,95.65
2019-05-19T01:52:08.189Z,96.42
2019-05-19T01:53:08.229Z,96.42
2019-05-19T01:54:08.254Z,96.42
2019-05-19T01:55:08.291Z,96.22
2019-05-19T01:56:08.323Z,96.22
2019-05-19T01:57:08.363Z,96.22
2019-05-19T01:58:08.388Z,96.42
2019-05-19T01:59:08.425Z,96.22
2019-05-19T02:00:08.457Z,94.98
2019-05-19T02:01:08.490Z,94.22
2019-05-19T02:02:08.530Z,94.03
2019-05-19T02:03:08.557Z,93.84
2019-05-19T02:04:08.591Z,93.93
2019-05-19T02:05:08.639Z,94.12
2019-05-19T02:06:08.658Z,94.22
2019-05-19T02:07:08.691Z,92.79
2019-05-19T02:08:08.725Z,92.93
2019-05-19T02:09:08.762Z,91.50
2019-05-19T02:10:08.792Z,91.02
2019-05-19T02:11:08.830Z,90.25
2019-05-19T02:12:08.859Z,89.78
2019-05-19T02:13:08.895Z,90.20
2019-05-19T02:14:08.924Z,89.82
2019-05-19T02:15:08.957Z,89.44
2019-05-19T02:16:08.996Z,89.73
2019-05-19T02:17:09.028Z,89.63
2019-05-19T02:18:09.060Z,89.53
2019-05-19T02:19:09.094Z,90.59
2019-05-19T02:20:09.162Z,91.35
2019-05-19T02:21:09.162Z,91.64
2019-05-19T02:22:09.196Z,91.06
2019-05-19T02:23:09.228Z,91.59
2019-05-19T02:24:09.264Z,92.16
2019-05-19T02:25:09.295Z,91.59
2019-05-19T02:26:09.327Z,92.45
2019-05-19T02:27:09.362Z,92.16
2019-05-19T02:28:09.405Z,91.74
2019-05-19T02:29:09.432Z,92.26
2019-05-19T02:30:09.492Z,91.06
2019-05-19T02:31:09.500Z,91.59
2019-05-19T02:32:09.534Z,91.83
2019-05-19T02:33:09.575Z,91.50
2019-05-19T02:34:09.622Z,91.69
2019-05-19T02:35:09.634Z,92.07
2019-05-19T02:36:09.668Z,91.97
2019-05-19T02:37:09.708Z,92.26
2019-05-19T02:38:09.733Z,92.45
2019-05-19T02:39:09.769Z,93.12
2019-05-19T02:40:09.812Z,92.74
2019-05-19T02:41:09.837Z,92.55
2019-05-19T02:42:09.872Z,91.97
2019-05-19T02:43:09.904Z,92.40
2019-05-19T02:44:09.948Z,91.74
2019-05-19T02:45:09.972Z,92.11
2019-05-19T02:46:10.010Z,91.93
2019-05-19T02:47:10.047Z,91.64
2019-05-19T02:48:10.072Z,92.21
2019-05-19T02:49:10.120Z,92.88
2019-05-19T02:50:10.140Z,93.12
2019-05-19T02:51:10.177Z,93.88
2019-05-19T02:52:10.226Z,93.60
2019-05-19T02:53:10.244Z,94.51
2019-05-19T02:54:10.276Z,95.41
2019-05-19T02:55:10.310Z,97.03
2019-05-19T02:56:10.347Z,97.99
2019-05-19T02:57:10.380Z,99.04
2019-05-19T02:58:10.413Z,99.23
2019-05-19T02:59:10.446Z,99.99
2019-05-19T03:00:10.481Z,99.99
2019-05-19T03:01:10.515Z,99.99
2019-05-19T03:02:10.548Z,99.99
2019-05-19T03:03:10.582Z,99.99
2019-05-19T03:04:10.615Z,99.99
2019-05-19T03:05:10.656Z,99.99
2019-05-19T03:06:10.686Z,99.99
2019-05-19T03:07:10.719Z,99.99
2019-05-19T03:08:10.758Z,99.99
2019-05-19T03:09:10.790Z,99.99
2019-05-19T03:10:10.833Z,99.99
2019-05-19T03:11:10.855Z,99.99
2019-05-19T03:12:10.901Z,99.99
2019-05-19T03:13:10.923Z,99.99
2019-05-19T03:14:10.960Z,99.99
2019-05-19T03:15:10.997Z,99.99
2019-05-19T03:16:11.032Z,99.99
2019-05-19T03:17:11.064Z,99.99
2019-05-19T03:18:11.092Z,99.99
2019-05-19T03:19:11.129Z,99.90
2019-05-19T03:20:11.180Z,99.99
2019-05-19T03:21:12.136Z,99.99
2019-05-19T03:22:11.230Z,99.99
2019-05-19T03:23:11.266Z,99.99
2019-05-19T03:24:11.300Z,99.80
2019-05-19T03:25:11.338Z,99.14
2019-05-19T03:26:11.369Z,98.61
2019-05-19T03:27:11.403Z,97.66
2019-05-19T03:28:11.437Z,98.23
2019-05-19T03:29:11.486Z,98.61
2019-05-19T03:30:11.513Z,98.04
2019-05-19T03:31:11.542Z,98.04
2019-05-19T03:32:13.055Z,99.09
2019-05-19T03:33:11.648Z,99.23
2019-05-19T03:34:11.642Z,98.80
2019-05-19T03:35:11.682Z,99.19
2019-05-19T03:36:11.712Z,98.90
2019-05-19T03:37:11.748Z,98.61
2019-05-19T03:38:11.781Z,98.99
2019-05-19T03:39:11.821Z,98.99
2019-05-19T03:40:11.852Z,98.80
2019-05-19T03:41:11.888Z,98.04
2019-05-19T03:42:12.000Z,96.89
2019-05-19T03:43:11.953Z,97.08
2019-05-19T03:44:11.989Z,96.42
2019-05-19T03:45:12.023Z,95.94
2019-05-19T03:46:12.060Z,94.89
2019-05-19T03:47:12.093Z,94.22
2019-05-19T03:48:12.128Z,94.41
2019-05-19T03:49:12.171Z,94.46
2019-05-19T03:50:12.197Z,94.84
2019-05-19T03:51:29.381Z,94.93
2019-05-19T03:52:12.266Z,94.17
2019-05-19T03:53:12.301Z,94.07
2019-05-19T03:54:12.336Z,94.36
2019-05-19T03:55:12.372Z,93.60
2019-05-19T03:56:12.405Z,93.60
2019-05-19T03:57:12.439Z,93.50
2019-05-19T03:58:12.478Z,93.40
2019-05-19T03:59:12.514Z,92.35
2019-05-19T04:00:12.556Z,93.35
2019-05-19T04:01:12.583Z,91.83
2019-05-19T04:02:12.614Z,91.53
2019-05-19T04:03:12.657Z,90.77
2019-05-19T04:04:12.685Z,89.86
2019-05-19T04:05:12.725Z,89.76
2019-05-19T04:06:12.755Z,89.29
2019-05-19T04:07:12.791Z,88.71
2019-05-19T04:08:12.826Z,88.62
2019-05-19T04:09:12.869Z,88.81
2019-05-19T04:10:12.897Z,88.62
2019-05-19T04:11:12.932Z,89.29
2019-05-19T04:12:12.970Z,87.66
2019-05-19T04:13:13.006Z,88.90
2019-05-19T04:14:13.039Z,88.43
2019-05-19T04:15:13.079Z,88.43
2019-05-19T04:16:13.109Z,88.90
2019-05-19T04:17:13.148Z,88.81
2019-05-19T04:18:13.184Z,87.76
2019-05-19T04:19:13.223Z,88.13
2019-05-19T04:20:13.260Z,88.71
2019-05-19T04:21:13.288Z,87.66
2019-05-19T04:22:13.325Z,87.85
2019-05-19T04:23:13.362Z,88.28
2019-05-19T04:24:13.399Z,87.37
2019-05-19T04:25:13.433Z,87.23
2019-05-19T04:26:13.466Z,87.61
2019-05-19T04:27:13.507Z,86.08
2019-05-19T04:28:13.544Z,86.84
2019-05-19T04:29:13.581Z,85.41
2019-05-19T04:30:13.627Z,84.68
2019-05-19T04:31:13.648Z,85.45
2019-05-19T04:32:13.687Z,85.64
2019-05-19T04:33:13.727Z,85.30
2019-05-19T04:34:13.766Z,83.19
2019-05-19T04:35:13.796Z,82.81
2019-05-19T04:36:13.834Z,81.02
2019-05-19T04:37:13.869Z,80.55
2019-05-19T04:38:13.906Z,81.07
2019-05-19T04:39:13.945Z,79.47
2019-05-19T04:40:13.998Z,76.40
2019-05-19T04:41:14.045Z,75.20
2019-05-19T04:42:14.055Z,73.98
2019-05-19T04:43:14.095Z,72.83
2019-05-19T04:44:14.139Z,72.64
2019-05-19T04:45:14.172Z,73.37
2019-05-19T04:46:14.207Z,76.06
2019-05-19T04:47:14.248Z,75.10
2019-05-19T04:48:14.286Z,76.06
2019-05-19T04:49:14.331Z,74.52
2019-05-19T04:50:14.371Z,75.54
2019-05-19T04:51:14.405Z,76.02
2019-05-19T04:52:14.465Z,76.50
2019-05-19T04:53:14.488Z,75.54
2019-05-19T04:54:14.526Z,77.46
2019-05-19T04:55:14.564Z,78.67
2019-05-19T04:56:14.602Z,78.47
2019-05-19T04:57:14.642Z,78.86
2019-05-19T04:58:14.681Z,78.38
2019-05-19T04:59:14.720Z,77.61
2019-05-19T05:00:14.764Z,76.06
2019-05-19T05:01:14.803Z,74.27
2019-05-19T05:02:14.843Z,74.43
2019-05-19T05:03:14.882Z,73.69
2019-05-19T05:04:14.920Z,73.41
2019-05-19T05:05:14.963Z,74.23
2019-05-19T05:06:15.000Z,75.15
2019-05-19T05:07:15.039Z,77.13
2019-05-19T05:08:28.511Z,78.67
2019-05-19T05:09:15.131Z,78.53
2019-05-19T05:10:15.164Z,79.78
2019-05-19T05:11:15.200Z,80.51
2019-05-19T05:12:15.243Z,81.18
2019-05-19T05:13:15.287Z,79.49
2019-05-19T05:14:15.321Z,79.68
2019-05-19T05:15:15.363Z,79.91
2019-05-19T05:16:15.403Z,77.80
2019-05-19T05:17:15.443Z,76.50
2019-05-19T05:18:15.482Z,75.20
2019-05-19T05:19:15.522Z,74.46
2019-05-19T05:20:15.564Z,73.69
2019-05-19T05:21:15.603Z,73.60
2019-05-19T05:22:22.240Z,73.94
2019-05-19T05:23:15.683Z,73.69
2019-05-19T05:24:15.728Z,72.77
2019-05-19T05:25:15.768Z,72.73
2019-05-19T05:26:15.808Z,71.81
2019-05-19T05:27:15.849Z,71.81
2019-05-19T05:28:15.891Z,71.36
2019-05-19T05:29:15.930Z,69.53
2019-05-19T05:30:15.975Z,68.99
2019-05-19T05:31:16.013Z,69.24
2019-05-19T05:32:16.055Z,69.44
2019-05-19T05:33:16.098Z,70.21
2019-05-19T05:34:16.138Z,70.46
2019-05-19T05:35:16.181Z,69.21
2019-05-19T05:36:16.225Z,69.21
2019-05-19T05:37:16.266Z,69.34
2019-05-19T05:38:16.305Z,69.60
2019-05-19T05:39:16.347Z,70.59
2019-05-19T05:40:16.389Z,69.24
2019-05-19T05:41:16.432Z,68.44
2019-05-19T05:42:16.477Z,66.42
2019-05-19T05:43:16.519Z,66.42
2019-05-19T05:44:16.558Z,66.07
2019-05-19T05:45:16.601Z,65.27
2019-05-19T05:46:16.645Z,67.45
2019-05-19T05:47:16.689Z,66.39
2019-05-19T05:48:16.738Z,65.78
2019-05-19T05:49:16.772Z,65.01
2019-05-19T05:50:16.817Z,63.89
2019-05-19T05:51:16.858Z,63.82
2019-05-19T05:52:16.918Z,61.22
2019-05-19T05:53:16.946Z,61.61
2019-05-19T05:54:16.987Z,61.16
2019-05-19T05:55:17.038Z,61.99
2019-05-19T05:56:17.075Z,61.16
2019-05-19T05:57:17.119Z,62.18
2019-05-19T05:58:17.188Z,62.18
2019-05-19T05:59:17.210Z,61.54
2019-05-19T06:00:17.251Z,62.57
2019-05-19T06:01:17.294Z,62.60
2019-05-19T06:02:17.339Z,60.96
2019-05-19T06:03:17.383Z,62.44
2019-05-19T06:04:17.428Z,61.90
2019-05-19T06:05:17.517Z,62.70
2019-05-19T06:06:17.520Z,61.54
2019-05-19T06:07:17.561Z,61.99
2019-05-19T06:08:17.605Z,62.48
2019-05-19T06:09:17.648Z,62.02
2019-05-19T06:10:17.692Z,60.68
2019-05-19T06:11:17.737Z,61.71
2019-05-19T06:12:17.781Z,61.61
2019-05-19T06:13:17.827Z,63.12
2019-05-19T06:14:17.871Z,62.54
2019-05-19T06:15:17.915Z,63.09
2019-05-19T06:16:17.964Z,63.09
2019-05-19T06:17:18.006Z,63.57
2019-05-19T06:18:18.050Z,62.45
2019-05-19T06:19:18.097Z,62.79
2019-05-19T06:20:18.143Z,62.66
2019-05-19T06:21:18.185Z,62.35
2019-05-19T06:22:18.236Z,63.82
2019-05-19T06:23:18.278Z,62.15
2019-05-19T06:24:18.321Z,61.86
2019-05-19T06:25:18.372Z,61.09
2019-05-19T06:26:18.426Z,60.22
2019-05-19T06:27:18.456Z,59.83
2019-05-19T06:28:18.505Z,59.64
2019-05-19T06:29:18.548Z,61.28
2019-05-19T06:30:18.594Z,61.09
2019-05-19T06:31:18.643Z,61.47
2019-05-19T06:32:18.684Z,62.02
2019-05-19T06:33:18.734Z,60.71
2019-05-19T06:34:18.774Z,60.64
2019-05-19T06:35:18.829Z,58.90
2019-05-19T06:36:18.867Z,59.64
2019-05-19T06:37:18.912Z,60.22
2019-05-19T06:38:18.957Z,60.38
2019-05-19T06:39:19.006Z,61.03
2019-05-19T06:40:19.053Z,61.28
2019-05-19T06:41:19.097Z,61.19
2019-05-19T06:42:19.142Z,61.93
2019-05-19T06:43:19.191Z,62.31
2019-05-19T06:44:19.236Z,60.89
2019-05-19T06:45:19.287Z,61.54
2019-05-19T06:46:19.328Z,61.22
2019-05-19T06:47:19.374Z,61.83
2019-05-19T06:48:19.419Z,62.38
2019-05-19T06:49:19.469Z,62.48
2019-05-19T06:50:19.516Z,62.60
2019-05-19T06:51:19.557Z,63.40
2019-05-19T06:52:19.608Z,60.61
2019-05-19T06:53:19.650Z,58.90
2019-05-19T06:54:19.694Z,59.13
2019-05-19T06:55:19.748Z,60.83
2019-05-19T06:56:19.788Z,60.13
2019-05-19T06:57:19.879Z,61.93
2019-05-19T06:58:19.880Z,60.61
2019-05-19T06:59:19.931Z,59.25
2019-05-19T07:00:19.975Z,61.38
2019-05-19T07:01:20.021Z,60.41
2019-05-19T07:02:20.097Z,61.74
2019-05-19T07:03:20.118Z,62.09
2019-05-19T07:04:20.163Z,61.54
2019-05-19T07:05:20.207Z,61.54
2019-05-19T07:06:20.254Z,60.19
2019-05-19T07:07:20.302Z,61.44
2019-05-19T07:08:20.349Z,61.74
2019-05-19T07:09:20.396Z,61.71
2019-05-19T07:10:20.446Z,60.96
2019-05-19T07:11:20.492Z,60.71
2019-05-19T07:12:20.538Z,60.38
2019-05-19T07:13:20.587Z,61.38
2019-05-19T07:14:20.629Z,63.89
2019-05-19T07:15:20.677Z,62.54
2019-05-19T07:16:20.738Z,63.63
2019-05-19T07:17:20.771Z,62.54
2019-05-19T07:18:20.817Z,62.60
2019-05-19T07:19:20.863Z,62.44
2019-05-19T07:20:20.910Z,59.80
2019-05-19T07:21:20.964Z,60.10
2019-05-19T07:22:21.006Z,61.25
2019-05-19T07:23:28.324Z,60.77
2019-05-19T07:24:21.099Z,61.03
2019-05-19T07:25:21.149Z,62.25
2019-05-19T07:26:21.193Z,61.99
2019-05-19T07:27:21.239Z,61.54
2019-05-19T07:28:21.287Z,61.03
2019-05-19T07:29:21.334Z,61.64
2019-05-19T07:30:21.384Z,61.06
2019-05-19T07:31:21.429Z,60.48
2019-05-19T07:32:21.476Z,60.93
2019-05-19T07:33:21.524Z,62.73
2019-05-19T07:34:21.580Z,63.85
2019-05-19T07:35:21.616Z,62.86
2019-05-19T07:36:21.663Z,60.93
2019-05-19T07:37:21.710Z,61.61
2019-05-19T07:38:21.758Z,60.89
2019-05-19T07:39:21.804Z,59.78
2019-05-19T07:40:21.851Z,62.06
2019-05-19T07:41:21.900Z,61.74
2019-05-19T07:42:21.952Z,60.77
2019-05-19T07:43:22.015Z,58.58
2019-05-19T07:44:22.044Z,58.19
2019-05-19T07:45:22.090Z,61.25
2019-05-19T07:46:22.135Z,60.31
2019-05-19T07:47:22.181Z,59.74
2019-05-19T07:48:22.229Z,59.60
2019-05-19T07:49:22.276Z,58.73
2019-05-19T07:50:22.323Z,58.32
2019-05-19T07:51:22.371Z,58.77
2019-05-19T07:52:22.419Z,59.19
2019-05-19T07:53:22.467Z,58.54
2019-05-19T07:54:22.514Z,58.70
2019-05-19T07:55:22.564Z,58.42
2019-05-19T07:56:22.611Z,58.39
2019-05-19T07:57:22.704Z,57.42
2019-05-19T07:58:22.707Z,57.74
2019-05-19T07:59:22.817Z,57.38
2019-05-19T08:00:22.802Z,58.37
2019-05-19T08:01:22.855Z,57.24
2019-05-19T08:02:22.982Z,55.77
2019-05-19T08:03:22.949Z,56.41
2019-05-19T08:04:22.997Z,56.73
2019-05-19T08:05:23.048Z,57.32
2019-05-19T08:06:23.092Z,58.39
2019-05-19T08:07:23.142Z,59.16
2019-05-19T08:08:23.190Z,58.64
2019-05-19T08:09:23.238Z,56.15
2019-05-19T08:10:23.287Z,54.41
2019-05-19T08:11:23.364Z,55.79
2019-05-19T08:12:23.386Z,55.24
2019-05-19T08:13:23.434Z,56.45
2019-05-19T08:14:23.481Z,56.05
2019-05-19T08:15:23.532Z,56.45
2019-05-19T08:16:23.810Z,56.54
2019-05-19T08:17:25.853Z,56.67
2019-05-19T08:18:23.681Z,54.93
2019-05-19T08:19:23.728Z,57.03
2019-05-19T08:20:23.871Z,57.41
2019-05-19T08:21:23.825Z,57.89
2019-05-19T08:22:23.875Z,56.54
2019-05-19T08:23:23.925Z,57.51
2019-05-19T08:24:24.013Z,55.96
2019-05-19T08:25:24.044Z,56.47
2019-05-19T08:26:24.078Z,55.24
2019-05-19T08:27:24.122Z,54.35
2019-05-19T08:28:24.173Z,55.24
2019-05-19T08:29:24.279Z,56.02
2019-05-19T08:30:24.272Z,56.65
2019-05-19T08:31:24.325Z,55.82
2019-05-19T08:32:24.389Z,55.41
2019-05-19T08:33:24.437Z,55.89
2019-05-19T08:34:24.474Z,56.37
2019-05-19T08:35:24.531Z,56.05
2019-05-19T08:36:24.674Z,56.99
2019-05-19T08:37:24.639Z,56.99
2019-05-19T08:38:24.672Z,58.76
2019-05-19T08:39:24.726Z,57.03
2019-05-19T08:40:24.782Z,57.41
2019-05-19T08:41:24.825Z,56.98
2019-05-19T08:42:24.892Z,57.15
2019-05-19T08:43:24.922Z,56.30
2019-05-19T08:44:24.981Z,55.92
2019-05-19T08:45:25.024Z,56.51
2019-05-19T08:46:25.074Z,57.84
2019-05-19T08:47:25.127Z,58.15
2019-05-19T08:48:25.174Z,57.76
2019-05-19T08:49:25.323Z,55.49
2019-05-19T08:50:25.274Z,56.24
2019-05-19T08:51:25.324Z,55.89
2019-05-19T08:52:25.376Z,57.59
2019-05-19T08:53:25.424Z,55.30
2019-05-19T08:54:25.474Z,54.71
2019-05-19T08:55:25.529Z,54.75
2019-05-19T08:56:25.576Z,54.49
2019-05-19T08:57:25.632Z,53.50
2019-05-19T08:58:25.675Z,54.08
2019-05-19T08:59:25.733Z,54.47
2019-05-19T09:00:25.776Z,54.66
2019-05-19T09:01:25.826Z,56.11
2019-05-19T09:02:25.877Z,57.03
2019-05-19T09:03:25.929Z,58.54
2019-05-19T09:04:25.982Z,57.19
2019-05-19T09:05:26.028Z,58.45
2019-05-19T09:06:26.077Z,58.28
2019-05-19T09:07:26.132Z,56.15
2019-05-19T09:08:26.184Z,56.28
2019-05-19T09:09:26.230Z,56.35
2019-05-19T09:10:26.283Z,57.28
2019-05-19T09:11:26.339Z,53.53
2019-05-19T09:12:26.387Z,55.17
2019-05-19T09:13:26.432Z,54.39
2019-05-19T09:14:26.481Z,53.81
2019-05-19T09:15:26.534Z,52.92
2019-05-19T09:16:26.586Z,53.72
2019-05-19T09:17:26.635Z,54.57
2019-05-19T09:18:26.682Z,54.35
2019-05-19T09:19:26.732Z,54.95
2019-05-19T09:20:26.784Z,53.59
2019-05-19T09:21:26.840Z,54.41
2019-05-19T09:22:26.885Z,55.55
2019-05-19T09:23:26.934Z,58.25
2019-05-19T09:24:30.368Z,57.87
2019-05-19T09:25:27.039Z,58.37
2019-05-19T09:26:27.086Z,56.83
2019-05-19T09:27:27.141Z,55.96
2019-05-19T09:28:27.188Z,54.83
2019-05-19T09:29:27.236Z,54.80
2019-05-19T09:30:27.291Z,55.70
2019-05-19T09:31:27.341Z,54.44
2019-05-19T09:32:27.386Z,55.26
2019-05-19T09:33:27.438Z,54.63
2019-05-19T09:34:27.491Z,55.60
2019-05-19T09:35:27.540Z,56.35
2019-05-19T09:36:27.587Z,57.05
2019-05-19T09:37:27.639Z,56.37
2019-05-19T09:38:27.690Z,56.05
2019-05-19T09:39:27.743Z,56.13
2019-05-19T09:40:27.788Z,55.74
2019-05-19T09:41:27.837Z,56.61
2019-05-19T09:42:27.889Z,56.39
2019-05-19T09:43:27.935Z,56.46
2019-05-19T09:44:27.990Z,57.21
2019-05-19T09:45:28.036Z,57.05
2019-05-19T09:46:28.086Z,54.63
2019-05-19T09:47:28.137Z,55.15
2019-05-19T09:48:28.185Z,54.17
2019-05-19T09:49:28.234Z,54.61
2019-05-19T09:50:28.284Z,57.31
2019-05-19T09:51:28.336Z,55.77
2019-05-19T09:52:28.390Z,55.77
2019-05-19T09:53:28.434Z,55.67
2019-05-19T09:54:28.482Z,54.44
2019-05-19T09:55:28.532Z,52.53
2019-05-19T09:56:28.584Z,53.69
2019-05-19T09:57:28.636Z,52.80
2019-05-19T09:58:28.683Z,53.21
2019-05-19T09:59:28.730Z,53.89
2019-05-19T10:00:28.785Z,52.49
2019-05-19T10:01:28.837Z,50.89
2019-05-19T10:02:28.879Z,51.37
2019-05-19T10:03:28.929Z,48.76
2019-05-19T10:04:28.978Z,48.76
2019-05-19T10:05:29.029Z,51.09
2019-05-19T10:06:29.080Z,51.21
2019-05-19T10:07:29.132Z,48.30
2019-05-19T10:08:29.180Z,51.45
2019-05-19T10:09:29.243Z,51.06
2019-05-19T10:10:29.281Z,50.77
2019-05-19T10:11:29.344Z,50.70
2019-05-19T10:12:29.386Z,49.66
2019-05-19T10:13:29.433Z,50.92
2019-05-19T10:14:29.483Z,49.34
2019-05-19T10:15:29.537Z,49.32
2019-05-19T10:16:29.588Z,51.40
2019-05-19T10:17:29.641Z,49.61
2019-05-19T10:18:29.688Z,48.27
2019-05-19T10:19:29.741Z,50.70
2019-05-19T10:20:29.790Z,50.62
2019-05-19T10:21:29.850Z,48.42
2019-05-19T10:22:29.893Z,50.55
2019-05-19T10:23:29.947Z,52.87
2019-05-19T10:24:29.997Z,52.46
2019-05-19T10:25:30.048Z,51.23
2019-05-19T10:26:30.100Z,50.26
2019-05-19T10:27:30.150Z,49.39
2019-05-19T10:28:30.205Z,49.46
2019-05-19T10:29:30.253Z,51.08
2019-05-19T10:30:30.304Z,51.72
2019-05-19T10:31:30.355Z,50.41
2019-05-19T10:32:30.406Z,49.97
2019-05-19T10:33:30.458Z,48.52
2019-05-19T10:34:30.508Z,49.61
2019-05-19T10:35:30.558Z,51.04
2019-05-19T10:36:30.610Z,51.25
2019-05-19T10:37:30.660Z,51.93
2019-05-19T10:38:30.714Z,49.82
2019-05-19T10:39:30.764Z,52.06
2019-05-19T10:40:30.818Z,49.80
2019-05-19T10:41:30.866Z,47.30
2019-05-19T10:42:30.916Z,48.93
2019-05-19T10:43:30.968Z,49.34
2019-05-19T10:44:31.041Z,51.93
2019-05-19T10:45:31.073Z,52.97
2019-05-19T10:46:31.151Z,53.25
2019-05-19T10:47:31.173Z,54.71
2019-05-19T10:48:31.243Z,54.61
2019-05-19T10:49:31.273Z,54.80
2019-05-19T10:50:31.323Z,55.31
2019-05-19T10:51:31.374Z,54.51
2019-05-19T10:52:31.425Z,54.57
2019-05-19T10:53:31.474Z,52.44
2019-05-19T10:54:31.527Z,52.95
2019-05-19T10:55:36.499Z,53.17
2019-05-19T10:56:31.627Z,52.29
2019-05-19T10:57:31.675Z,51.47
2019-05-19T10:58:31.728Z,51.21
2019-05-19T10:59:31.775Z,49.61
2019-05-19T11:00:31.829Z,51.06
2019-05-19T11:01:31.876Z,50.02
2019-05-19T11:02:31.927Z,50.38
2019-05-19T11:03:31.978Z,51.04
2019-05-19T11:04:32.028Z,51.72
2019-05-19T11:05:32.079Z,50.38
2019-05-19T11:06:32.132Z,50.38
2019-05-19T11:07:32.181Z,49.61
2019-05-19T11:08:32.231Z,51.06
2019-05-19T11:09:32.282Z,50.96
2019-05-19T11:10:32.345Z,50.41
2019-05-19T11:11:32.384Z,49.95
2019-05-19T11:12:32.435Z,49.02
2019-05-19T11:13:32.486Z,49.49
2019-05-19T11:14:32.534Z,47.72
2019-05-19T11:15:32.599Z,49.63
2019-05-19T11:16:32.634Z,49.92
2019-05-19T11:17:32.684Z,49.66
2019-05-19T11:18:32.742Z,49.87
2019-05-19T11:19:32.786Z,47.93
2019-05-19T11:20:32.838Z,51.43
2019-05-19T11:21:32.888Z,49.58
2019-05-19T11:22:32.985Z,50.65
2019-05-19T11:23:32.990Z,49.80
2019-05-19T11:24:33.043Z,49.71
2019-05-19T11:25:34.423Z,46.48
2019-05-19T11:26:33.146Z,49.56
2019-05-19T11:27:33.196Z,50.48
2019-05-19T11:28:33.246Z,49.61
2019-05-19T11:29:33.300Z,47.49
2019-05-19T11:30:33.351Z,49.02
2019-05-19T11:31:33.400Z,47.52
2019-05-19T11:32:33.455Z,48.15
2019-05-19T11:33:33.509Z,48.44
2019-05-19T11:34:33.558Z,47.35
2019-05-19T11:35:33.617Z,48.13
2019-05-19T11:36:33.664Z,46.94
2019-05-19T11:37:33.715Z,48.03
2019-05-19T11:38:33.762Z,47.55
2019-05-19T11:39:33.814Z,46.75
2019-05-19T11:40:33.866Z,46.86
2019-05-19T11:41:33.920Z,46.48
2019-05-19T11:42:33.977Z,47.13
2019-05-19T11:43:34.022Z,47.81
2019-05-19T11:44:34.094Z,48.49
2019-05-19T11:45:34.129Z,49.54
2019-05-19T11:46:34.195Z,48.93
2019-05-19T11:47:34.239Z,49.70
2019-05-19T11:48:34.284Z,49.82
2019-05-19T11:49:34.335Z,51.28
2019-05-19T11:50:34.390Z,50.41
2019-05-19T11:51:34.438Z,49.77
2019-05-19T11:52:34.495Z,51.90
2019-05-19T11:53:34.544Z,52.00
2019-05-19T11:54:34.594Z,51.16
2019-05-19T11:55:34.654Z,50.96
2019-05-19T11:56:34.697Z,52.54
2019-05-19T11:57:34.749Z,48.95
2019-05-19T11:58:34.799Z,50.74
2019-05-19T11:59:34.852Z,51.26
2019-05-19T12:00:34.904Z,48.44
2019-05-19T12:01:34.958Z,48.25
2019-05-19T12:02:35.037Z,49.02
2019-05-19T12:03:35.081Z,47.18
2019-05-19T12:04:35.112Z,49.02
2019-05-19T12:05:35.212Z,48.54
2019-05-19T12:06:39.288Z,47.15
2019-05-19T12:07:35.273Z,45.81
2019-05-19T12:08:35.327Z,44.62
2019-05-19T12:09:35.375Z,44.82
2019-05-19T12:10:35.426Z,44.87
2019-05-19T12:11:35.480Z,46.55
2019-05-19T12:12:35.532Z,46.50
2019-05-19T12:13:35.584Z,47.11
2019-05-19T12:14:35.644Z,46.77
2019-05-19T12:15:35.695Z,44.31
2019-05-19T12:16:35.743Z,44.56
2019-05-19T12:17:35.797Z,45.62
2019-05-19T12:18:35.846Z,46.25
2019-05-19T12:19:35.899Z,45.18
2019-05-19T12:20:35.971Z,44.29
2019-05-19T12:21:36.007Z,45.07
2019-05-19T12:22:36.060Z,46.41
2019-05-19T12:23:36.111Z,46.80
2019-05-19T12:24:36.177Z,48.49
2019-05-19T12:25:36.220Z,46.45
2019-05-19T12:26:36.290Z,48.73
2019-05-19T12:27:36.329Z,44.65
2019-05-19T12:28:36.379Z,46.67
2019-05-19T12:29:36.427Z,49.51
2019-05-19T12:30:36.483Z,48.64
2019-05-19T12:31:36.535Z,49.61
2019-05-19T12:32:36.638Z,48.85
2019-05-19T12:33:49.632Z,50.65
2019-05-19T12:34:36.689Z,50.31
2019-05-19T12:35:36.749Z,50.89
2019-05-19T12:36:36.794Z,51.90
2019-05-19T12:37:36.848Z,53.55
2019-05-19T12:38:36.900Z,53.99
2019-05-19T12:39:36.949Z,50.72
2019-05-19T12:40:37.001Z,52.70
2019-05-19T12:41:37.056Z,53.16
2019-05-19T12:42:37.112Z,53.96
2019-05-19T12:43:37.157Z,53.69
2019-05-19T12:44:37.210Z,50.55
2019-05-19T12:45:37.263Z,50.98
2019-05-19T12:46:37.308Z,51.01
2019-05-19T12:47:37.361Z,51.83
2019-05-19T12:48:37.412Z,52.87
2019-05-19T12:49:37.463Z,54.83
2019-05-19T12:50:37.515Z,51.78
2019-05-19T12:51:37.562Z,50.35
2019-05-19T12:52:37.614Z,51.04